Time;durP1;ratioP1;P1;durP2;ratioP2;P2;SDS_P1;SDS_P2;PMS_P1;PMS_P2;Temp;Humidity;BMP_temperature;BMP_pressure;BME280_temperature;BME280_humidity;BME280_pressure;Samples;Min_cycle;Max_cycle;Signal;HPM_P1;HPM_P2
2023/07/08 00:00:15;;;;;;;6.70;3.90;;;24.00;55.50;;;;;;5073071;28;20941;-56
2023/07/08 00:02:43;;;;;;;10.43;3.63;;;24.00;55.70;;;;;;5073247;28;20472;-56
2023/07/08 00:05:11;;;;;;;7.13;3.67;;;24.10;56.10;;;;;;5073257;28;20451;-56
2023/07/08 00:07:38;;;;;;;3.80;3.40;;;24.10;56.00;;;;;;5073244;28;20478;-56
2023/07/08 00:10:14;;;;;;;4.13;3.83;;;24.10;56.40;;;;;;5073235;28;20444;-56
2023/07/08 00:12:41;;;;;;;6.13;3.70;;;24.10;56.50;;;;;;5074345;28;20883;-56
2023/07/08 00:15:09;;;;;;;4.23;3.70;;;24.10;56.50;;;;;;5086300;28;20450;-56
2023/07/08 00:17:36;;;;;;;4.30;3.50;;;24.10;56.50;;;;;;5073265;28;20445;-56
2023/07/08 00:20:09;;;;;;;3.57;3.27;;;24.10;56.50;;;;;;5086782;28;20452;-55
2023/07/08 00:22:40;;;;;;;5.10;3.40;;;24.10;56.60;;;;;;5095082;28;20466;-55
2023/07/08 00:25:08;;;;;;;5.00;3.90;;;24.10;56.70;;;;;;5097629;28;20428;-56
2023/07/08 00:27:36;;;;;;;6.60;4.03;;;24.00;56.60;;;;;;5097649;28;20475;-56
2023/07/08 00:30:09;;;;;;;4.20;3.80;;;24.00;56.60;;;;;;5097117;28;20949;-55
2023/07/08 00:32:41;;;;;;;4.00;3.60;;;24.00;57.00;;;;;;5097475;28;20467;-56
2023/07/08 00:35:08;;;;;;;3.80;3.40;;;24.00;56.90;;;;;;5096971;28;20981;-56
2023/07/08 00:37:35;;;;;;;4.23;3.83;;;24.00;57.10;;;;;;5097217;28;20451;-55
2023/07/08 00:40:02;;;;;;;5.70;4.07;;;23.90;57.10;;;;;;5096941;28;20452;-55
2023/07/08 00:42:30;;;;;;;5.87;3.90;;;23.90;57.40;;;;;;5097159;28;20464;-56
2023/07/08 00:44:59;;;;;;;5.30;4.17;;;23.90;57.80;;;;;;5095545;28;20509;-56
2023/07/08 00:47:26;;;;;;;4.67;4.00;;;23.90;58.20;;;;;;5076770;28;20480;-56
2023/07/08 00:49:57;;;;;;;3.70;3.40;;;23.80;58.50;;;;;;5094622;28;20452;-56
2023/07/08 00:52:26;;;;;;;4.40;4.00;;;23.80;58.30;;;;;;5097025;28;20460;-56
2023/07/08 00:54:55;;;;;;;9.97;3.60;;;23.80;58.80;;;;;;5096985;28;20451;-56
2023/07/08 00:57:24;;;;;;;3.27;2.70;;;23.80;58.80;;;;;;5096548;28;20930;-56
2023/07/08 00:59:56;;;;;;;3.53;3.23;;;23.80;59.10;;;;;;5096878;28;20443;-55
2023/07/08 01:02:27;;;;;;;4.60;3.30;;;23.70;59.60;;;;;;5098147;28;20467;-56
2023/07/08 01:04:59;;;;;;;4.40;4.00;;;23.70;59.90;;;;;;5097893;28;20428;-56
2023/07/08 01:07:26;;;;;;;5.07;3.13;;;23.70;59.90;;;;;;5097517;28;20467;-56
2023/07/08 01:09:57;;;;;;;4.47;3.67;;;23.70;60.60;;;;;;5096972;28;20796;-55
2023/07/08 01:12:35;;;;;;;6.10;3.87;;;23.70;60.70;;;;;;5096603;28;20468;-56
2023/07/08 01:15:03;;;;;;;6.53;4.10;;;23.70;60.60;;;;;;5096728;28;20438;-56
2023/07/08 01:17:32;;;;;;;4.27;3.20;;;23.60;60.80;;;;;;5096528;28;20439;-56
2023/07/08 01:20:00;;;;;;;4.53;3.70;;;23.60;60.90;;;;;;5096181;28;20539;-56
2023/07/08 01:22:32;;;;;;;6.10;3.57;;;23.60;61.70;;;;;;5097359;28;20829;-56
2023/07/08 01:25:03;;;;;;;3.97;3.40;;;23.60;62.00;;;;;;5096741;28;20431;-56
2023/07/08 01:27:32;;;;;;;3.87;3.40;;;23.50;61.70;;;;;;5096024;28;20985;-56
2023/07/08 01:30:00;;;;;;;3.90;3.53;;;23.60;61.80;;;;;;5096296;28;20467;-56
2023/07/08 01:32:27;;;;;;;6.80;4.30;;;23.60;61.90;;;;;;5096384;28;20468;-56
2023/07/08 01:35:01;;;;;;;6.30;3.50;;;23.60;61.70;;;;;;5095117;28;20991;-55
2023/07/08 01:37:35;;;;;;;8.33;3.97;;;23.60;61.70;;;;;;5096229;28;20416;-56
2023/07/08 01:40:17;;;;;;;4.10;3.67;;;23.60;61.40;;;;;;5096341;28;20428;-56
2023/07/08 01:42:43;;;;;;;5.43;3.53;;;23.60;61.30;;;;;;5096108;28;20463;-56
2023/07/08 01:45:12;;;;;;;4.53;3.30;;;23.50;61.30;;;;;;5096173;28;20440;-56
2023/07/08 01:47:40;;;;;;;3.67;3.30;;;23.50;62.00;;;;;;5095900;28;20479;-56
2023/07/08 01:50:08;;;;;;;6.00;4.10;;;23.50;61.30;;;;;;5096005;28;20451;-56
2023/07/08 01:52:37;;;;;;;4.87;3.40;;;23.50;61.80;;;;;;5095916;28;20475;-56
2023/07/08 01:55:04;;;;;;;6.23;3.70;;;23.50;62.10;;;;;;5096149;28;20459;-56
2023/07/08 01:57:31;;;;;;;5.53;4.80;;;23.40;62.10;;;;;;5095533;28;20452;-56
2023/07/08 01:59:57;;;;;;;4.83;3.87;;;23.40;62.10;;;;;;5095752;28;20443;-56
2023/07/08 02:02:24;;;;;;;3.33;3.03;;;23.30;62.60;;;;;;5095819;28;20525;-56
2023/07/08 02:04:51;;;;;;;3.60;3.20;;;23.30;63.70;;;;;;5095759;28;20949;-56
2023/07/08 02:07:18;;;;;;;5.73;3.20;;;23.20;64.50;;;;;;5095584;28;20483;-56
2023/07/08 02:09:46;;;;;;;3.40;3.10;;;23.20;65.00;;;;;;5095670;28;20443;-56
2023/07/08 02:12:13;;;;;;;6.23;3.53;;;23.20;65.50;;;;;;5095539;28;20471;-56
2023/07/08 02:14:39;;;;;;;3.80;3.50;;;23.10;65.70;;;;;;5095741;28;20949;-56
2023/07/08 02:17:06;;;;;;;4.73;3.53;;;23.10;66.00;;;;;;5095250;28;20800;-56
2023/07/08 02:19:33;;;;;;;5.83;3.70;;;23.10;66.30;;;;;;5094999;28;20870;-56
2023/07/08 02:22:00;;;;;;;4.10;3.70;;;23.10;66.80;;;;;;5095362;28;20798;-56
2023/07/08 02:24:26;;;;;;;4.40;3.30;;;23.10;66.80;;;;;;5095383;28;20448;-55
2023/07/08 02:26:55;;;;;;;4.40;3.50;;;23.00;66.40;;;;;;5095250;28;20507;-55
2023/07/08 02:29:21;;;;;;;4.07;3.40;;;23.00;67.10;;;;;;5094916;28;20504;-56
2023/07/08 02:31:48;;;;;;;4.50;3.93;;;22.90;67.30;;;;;;5094790;28;20458;-56
2023/07/08 02:34:14;;;;;;;4.73;4.23;;;22.90;67.80;;;;;;5094724;28;20842;-56
2023/07/08 02:36:41;;;;;;;4.33;4.00;;;22.90;68.10;;;;;;5094813;28;20852;-56
2023/07/08 02:39:08;;;;;;;5.07;3.90;;;22.80;68.30;;;;;;5094684;28;20447;-56
2023/07/08 02:41:35;;;;;;;4.10;3.70;;;22.80;68.40;;;;;;5094923;28;20451;-55
2023/07/08 02:44:03;;;;;;;6.00;3.40;;;22.70;68.60;;;;;;5094871;28;20471;-56
2023/07/08 02:46:30;;;;;;;3.87;3.53;;;22.70;68.70;;;;;;5093740;28;20486;-56
2023/07/08 02:48:56;;;;;;;5.97;3.97;;;22.70;69.00;;;;;;5094773;28;20448;-56
2023/07/08 02:51:23;;;;;;;7.63;3.63;;;22.60;69.50;;;;;;5094818;28;20450;-56
2023/07/08 02:53:50;;;;;;;4.80;3.60;;;22.50;69.70;;;;;;5094628;28;20464;-56
2023/07/08 02:56:17;;;;;;;3.47;3.13;;;22.50;70.10;;;;;;5094692;28;20440;-56
2023/07/08 02:58:44;;;;;;;3.93;3.53;;;22.40;70.20;;;;;;5094678;28;20452;-56
2023/07/08 03:01:17;;;;;;;3.80;3.50;;;22.40;70.50;;;;;;5094823;28;20447;-56
2023/07/08 03:03:44;;;;;;;4.93;3.40;;;22.30;70.80;;;;;;5094561;28;20977;-56
2023/07/08 03:06:11;;;;;;;3.87;3.57;;;22.30;70.60;;;;;;5094077;28;20930;-56
2023/07/08 03:08:38;;;;;;;6.60;3.77;;;22.30;71.10;;;;;;5094106;28;20949;-56
2023/07/08 03:11:07;;;;;;;7.17;4.10;;;22.20;71.40;;;;;;5094422;28;20443;-56
2023/07/08 03:13:34;;;;;;;6.13;4.10;;;22.20;71.40;;;;;;5094320;28;20467;-56
2023/07/08 03:16:02;;;;;;;4.50;3.87;;;22.10;71.40;;;;;;5094242;28;20471;-56
2023/07/08 03:18:30;;;;;;;4.50;3.80;;;22.10;71.60;;;;;;5094094;28;20480;-56
2023/07/08 03:20:58;;;;;;;5.27;4.20;;;22.10;72.00;;;;;;5094332;28;20420;-56
2023/07/08 03:23:26;;;;;;;4.60;3.90;;;22.10;71.90;;;;;;5094071;28;20468;-56
2023/07/08 03:25:53;;;;;;;6.77;4.33;;;22.10;72.20;;;;;;5094119;28;20435;-56
2023/07/08 03:28:20;;;;;;;4.43;4.10;;;22.10;72.50;;;;;;5093983;28;20480;-56
2023/07/08 03:30:52;;;;;;;4.90;4.03;;;22.00;72.60;;;;;;5093988;28;20535;-56
2023/07/08 03:33:19;;;;;;;6.00;3.53;;;22.00;72.70;;;;;;5093622;28;20999;-56
2023/07/08 03:35:48;;;;;;;4.83;3.93;;;22.00;72.60;;;;;;5093654;28;20856;-56
2023/07/08 03:38:14;;;;;;;5.03;3.70;;;22.00;72.50;;;;;;5093593;28;20840;-56
2023/07/08 03:40:41;;;;;;;4.40;4.00;;;22.00;72.10;;;;;;5093905;28;20448;-56
2023/07/08 03:43:08;;;;;;;4.40;4.10;;;21.90;71.80;;;;;;5093756;28;20475;-56
2023/07/08 03:45:34;;;;;;;5.03;4.53;;;21.90;71.70;;;;;;5093862;28;20501;-56
2023/07/08 03:48:01;;;;;;;4.97;4.50;;;22.00;71.00;;;;;;5093702;28;20540;-56
2023/07/08 03:50:28;;;;;;;6.13;4.67;;;21.90;69.90;;;;;;5093730;28;20448;-56
2023/07/08 03:52:57;;;;;;;7.53;5.90;;;21.90;69.70;;;;;;5093594;28;20833;-56
2023/07/08 03:55:24;;;;;;;5.20;4.60;;;21.90;69.40;;;;;;5093650;28;20455;-56
2023/07/08 03:57:51;;;;;;;6.03;5.30;;;21.90;68.70;;;;;;5093365;28;20444;-56
2023/07/08 04:00:18;;;;;;;8.23;5.07;;;21.90;68.40;;;;;;5093570;28;20443;-56
2023/07/08 04:02:45;;;;;;;6.07;5.40;;;21.90;68.40;;;;;;5093238;28;21014;-56
2023/07/08 04:05:14;;;;;;;6.87;5.87;;;22.00;68.10;;;;;;5093289;28;20937;-56
2023/07/08 04:07:41;;;;;;;7.20;5.70;;;21.90;67.70;;;;;;5094530;28;20598;-56
2023/07/08 04:10:10;;;;;;;6.37;4.90;;;21.90;67.20;;;;;;5094767;28;20444;-56
2023/07/08 04:12:37;;;;;;;7.20;5.10;;;21.90;67.00;;;;;;5093836;28;20479;-56
2023/07/08 04:15:04;;;;;;;6.07;4.90;;;21.90;67.30;;;;;;5093425;28;21005;-56
2023/07/08 04:17:31;;;;;;;7.20;6.00;;;22.00;67.90;;;;;;5093770;28;20440;-56
2023/07/08 04:19:58;;;;;;;6.20;5.60;;;21.90;68.40;;;;;;5093197;28;20463;-56
2023/07/08 04:22:24;;;;;;;8.63;5.67;;;21.90;68.20;;;;;;5093357;28;20592;-55
2023/07/08 04:24:51;;;;;;;8.20;5.20;;;21.90;67.30;;;;;;5093391;28;20443;-56
2023/07/08 04:27:19;;;;;;;6.73;5.57;;;21.90;67.00;;;;;;5093527;28;20536;-56
2023/07/08 04:29:46;;;;;;;7.13;5.77;;;21.90;67.30;;;;;;5093357;28;20444;-56
2023/07/08 04:32:12;;;;;;;5.40;4.90;;;22.00;67.50;;;;;;5093427;28;20471;-56
2023/07/08 04:34:39;;;;;;;6.20;5.50;;;22.00;67.50;;;;;;5093318;28;20448;-56
2023/07/08 04:37:06;;;;;;;6.93;6.33;;;22.00;67.70;;;;;;5093319;28;20444;-56
2023/07/08 04:39:33;;;;;;;7.77;5.27;;;22.00;67.80;;;;;;5093137;28;20547;-56
2023/07/08 04:42:00;;;;;;;6.20;5.60;;;22.10;67.80;;;;;;5093146;28;20447;-56
2023/07/08 04:44:28;;;;;;;5.93;5.33;;;22.10;67.60;;;;;;5093112;28;20460;-56
2023/07/08 04:46:57;;;;;;;6.60;5.30;;;22.10;67.80;;;;;;5093320;28;20479;-56
2023/07/08 04:49:31;;;;;;;9.17;5.40;;;22.10;68.00;;;;;;5092945;28;20451;-56
2023/07/08 04:51:59;;;;;;;6.37;5.77;;;22.10;68.10;;;;;;5092820;28;20927;-56
2023/07/08 04:54:26;;;;;;;6.50;5.57;;;22.10;67.60;;;;;;5093283;28;20475;-56
2023/07/08 04:56:53;;;;;;;7.43;5.60;;;22.10;67.80;;;;;;5093323;28;20444;-56
2023/07/08 04:59:23;;;;;;;6.83;5.00;;;22.10;67.80;;;;;;5093930;28;20487;-56
2023/07/08 05:01:52;;;;;;;5.70;5.20;;;22.10;67.70;;;;;;5096815;28;20440;-56
2023/07/08 05:04:20;;;;;;;5.70;5.10;;;22.20;67.40;;;;;;5095904;28;21036;-56
2023/07/08 05:06:47;;;;;;;6.20;5.60;;;22.20;66.60;;;;;;5093149;28;20995;-56
2023/07/08 05:09:14;;;;;;;7.00;6.30;;;22.20;66.90;;;;;;5093783;28;20444;-56
2023/07/08 05:11:41;;;;;;;7.93;6.70;;;22.20;66.30;;;;;;5096572;28;20447;-56
2023/07/08 05:14:08;;;;;;;13.30;6.40;;;22.30;65.20;;;;;;5096776;28;20455;-56
2023/07/08 05:16:36;;;;;;;6.33;5.70;;;22.30;64.00;;;;;;5096813;28;20447;-56
2023/07/08 05:19:04;;;;;;;9.43;6.00;;;22.40;61.50;;;;;;5096532;28;20949;-56
2023/07/08 05:21:33;;;;;;;5.73;5.20;;;22.50;59.90;;;;;;5096932;28;20452;-56
2023/07/08 05:24:00;;;;;;;5.07;4.33;;;22.60;59.50;;;;;;5096532;28;20502;-56
2023/07/08 05:26:27;;;;;;;4.87;4.47;;;22.60;59.20;;;;;;5096617;28;20501;-56
2023/07/08 05:28:53;;;;;;;5.30;4.13;;;22.70;58.30;;;;;;5096345;28;20486;-56
2023/07/08 05:31:20;;;;;;;5.73;4.50;;;22.80;57.70;;;;;;5097153;28;20452;-56
2023/07/08 05:33:46;;;;;;;4.20;3.80;;;22.90;56.50;;;;;;5096263;28;20460;-56
2023/07/08 05:36:15;;;;;;;6.30;4.70;;;23.00;56.10;;;;;;5096268;28;20451;-56
2023/07/08 05:38:41;;;;;;;4.80;4.27;;;23.00;55.70;;;;;;5096190;28;20452;-56
2023/07/08 05:41:08;;;;;;;6.57;4.43;;;23.10;56.10;;;;;;5096154;28;20512;-56
2023/07/08 05:43:35;;;;;;;12.27;5.30;;;23.10;56.10;;;;;;5095632;28;20985;-56
2023/07/08 05:46:02;;;;;;;9.30;4.93;;;23.20;56.20;;;;;;5096034;28;20470;-55
2023/07/08 05:48:29;;;;;;;7.00;5.63;;;23.40;55.00;;;;;;5095871;28;20479;-56
2023/07/08 05:50:56;;;;;;;7.20;5.23;;;23.50;53.50;;;;;;5095953;28;20466;-54
2023/07/08 05:53:25;;;;;;;6.83;5.23;;;23.60;53.50;;;;;;5078446;28;20989;-56
2023/07/08 05:55:52;;;;;;;6.00;5.40;;;23.80;53.70;;;;;;5088023;28;20448;-56
2023/07/08 05:58:18;;;;;;;5.87;5.10;;;23.90;52.30;;;;;;5095347;28;20570;-55
2023/07/08 06:00:46;;;;;;;7.60;4.60;;;24.00;51.90;;;;;;5095729;28;20456;-55
2023/07/08 06:03:12;;;;;;;6.10;4.80;;;24.10;51.60;;;;;;5095604;28;20812;-55
2023/07/08 06:05:40;;;;;;;6.70;5.33;;;24.30;51.60;;;;;;5095639;28;20448;-55
2023/07/08 06:08:08;;;;;;;4.90;4.40;;;24.40;51.90;;;;;;5093632;28;20475;-55
2023/07/08 06:10:41;;;;;;;8.93;6.13;;;24.60;51.80;;;;;;5095651;28;20486;-55
2023/07/08 06:13:08;;;;;;;13.43;5.20;;;24.80;51.60;;;;;;5084916;28;20839;-55
2023/07/08 06:15:35;;;;;;;13.87;5.50;;;24.90;51.30;;;;;;5076365;28;20535;-55
2023/07/08 06:18:03;;;;;;;6.77;4.87;;;25.00;49.90;;;;;;5074910;28;20441;-55
2023/07/08 06:20:30;;;;;;;9.13;4.97;;;25.20;49.60;;;;;;5075117;28;20913;-55
2023/07/08 06:22:57;;;;;;;7.30;5.00;;;25.30;49.30;;;;;;5075103;28;20518;-55
2023/07/08 06:25:23;;;;;;;5.27;4.77;;;25.40;49.10;;;;;;5075180;28;20448;-55
2023/07/08 06:27:51;;;;;;;5.47;4.97;;;25.50;49.00;;;;;;5075108;28;20484;-55
2023/07/08 06:30:18;;;;;;;5.90;4.93;;;25.60;48.30;;;;;;5075293;28;20452;-56
2023/07/08 06:32:45;;;;;;;7.53;4.97;;;25.60;47.50;;;;;;5074942;28;20460;-56
2023/07/08 06:35:11;;;;;;;5.80;5.20;;;25.60;47.90;;;;;;5074941;28;20447;-56
2023/07/08 06:37:38;;;;;;;5.13;4.63;;;25.70;48.00;;;;;;5075085;28;20451;-55
2023/07/08 06:40:06;;;;;;;5.90;5.33;;;25.80;47.70;;;;;;5075011;28;20444;-55
2023/07/08 06:42:32;;;;;;;7.77;5.27;;;25.90;48.00;;;;;;5074646;28;20476;-55
2023/07/08 06:45:00;;;;;;;6.60;5.60;;;25.90;48.00;;;;;;5074682;28;20452;-55
2023/07/08 06:47:27;;;;;;;7.50;5.53;;;26.10;47.80;;;;;;5074666;28;20441;-55
2023/07/08 06:49:54;;;;;;;6.10;4.97;;;26.20;47.00;;;;;;5074556;28;20498;-55
2023/07/08 06:52:20;;;;;;;5.53;4.93;;;26.30;47.10;;;;;;5074478;28;20480;-55
2023/07/08 06:54:47;;;;;;;6.00;5.40;;;26.40;47.00;;;;;;5074769;28;20449;-56
2023/07/08 06:57:14;;;;;;;8.90;5.50;;;26.60;46.90;;;;;;5074421;28;20449;-56
2023/07/08 06:59:40;;;;;;;7.63;4.70;;;26.70;46.70;;;;;;5074380;28;20448;-56
2023/07/08 07:02:09;;;;;;;6.47;5.17;;;26.80;46.50;;;;;;5074272;28;20445;-56
2023/07/08 07:04:36;;;;;;;6.77;5.90;;;26.90;45.70;;;;;;5074269;28;20448;-56
2023/07/08 07:07:02;;;;;;;6.40;5.20;;;27.10;45.30;;;;;;5073888;28;20946;-56
2023/07/08 07:09:29;;;;;;;6.17;5.57;;;27.20;45.50;;;;;;5073696;28;20997;-56
2023/07/08 07:11:56;;;;;;;6.10;5.27;;;27.30;45.20;;;;;;5074096;28;20444;-56
2023/07/08 07:14:22;;;;;;;7.43;5.60;;;27.50;45.10;;;;;;5074200;28;20476;-56
2023/07/08 07:16:49;;;;;;;7.63;5.37;;;27.60;44.70;;;;;;5074592;28;20448;-56
2023/07/08 07:19:17;;;;;;;6.30;5.70;;;27.70;44.20;;;;;;5074194;28;20472;-56
2023/07/08 07:21:44;;;;;;;6.30;4.80;;;27.80;44.00;;;;;;5074063;28;20444;-54
2023/07/08 07:24:11;;;;;;;9.50;6.23;;;28.00;43.50;;;;;;5073629;28;21000;-54
2023/07/08 07:26:39;;;;;;;6.50;4.83;;;28.10;43.10;;;;;;5074232;28;20531;-54
2023/07/08 07:29:06;;;;;;;6.80;5.30;;;28.20;42.50;;;;;;5074034;28;20961;-55
2023/07/08 07:31:33;;;;;;;10.43;5.73;;;28.40;42.60;;;;;;5073560;28;20453;-55
2023/07/08 07:34:00;;;;;;;5.70;4.97;;;28.50;41.90;;;;;;5073708;28;20499;-55
2023/07/08 07:36:28;;;;;;;5.80;5.30;;;28.60;41.70;;;;;;5073662;28;20460;-54
2023/07/08 07:38:55;;;;;;;6.33;5.73;;;28.80;41.40;;;;;;5073748;28;20468;-54
2023/07/08 07:41:23;;;;;;;6.73;5.80;;;28.90;41.20;;;;;;5073595;28;20819;-54
2023/07/08 07:43:50;;;;;;;8.70;6.10;;;29.00;40.70;;;;;;5073681;28;20480;-54
2023/07/08 07:46:16;;;;;;;7.13;5.10;;;29.10;39.10;;;;;;5073276;28;20799;-54
2023/07/08 07:48:43;;;;;;;6.40;5.80;;;29.00;40.10;;;;;;5073496;28;20484;-55
2023/07/08 07:51:10;;;;;;;6.43;5.33;;;29.00;38.60;;;;;;5073496;28;20502;-55
2023/07/08 07:53:39;;;;;;;6.97;5.90;;;29.00;38.80;;;;;;5073459;28;20524;-55
2023/07/08 07:56:06;;;;;;;7.47;5.90;;;29.10;39.10;;;;;;5073735;28;20452;-55
2023/07/08 07:58:33;;;;;;;8.03;5.80;;;29.20;38.80;;;;;;5073663;28;20441;-53
2023/07/08 08:01:00;;;;;;;6.20;5.60;;;29.40;38.70;;;;;;5073147;28;20953;-54
2023/07/08 08:03:27;;;;;;;7.30;5.67;;;29.60;38.50;;;;;;5072993;28;20464;-54
2023/07/08 08:05:54;;;;;;;5.60;5.03;;;29.80;38.10;;;;;;5073285;28;20484;-54
2023/07/08 08:08:22;;;;;;;9.00;7.13;;;29.80;38.10;;;;;;5073048;28;21009;-54
2023/07/08 08:10:50;;;;;;;6.17;5.60;;;29.90;37.30;;;;;;5073272;28;20449;-54
2023/07/08 08:13:16;;;;;;;7.00;6.00;;;29.80;37.40;;;;;;5072976;28;20982;-54
2023/07/08 08:15:43;;;;;;;6.67;6.00;;;30.00;37.10;;;;;;5073261;28;20448;-54
2023/07/08 08:18:10;;;;;;;7.33;6.40;;;30.20;37.00;;;;;;5073206;28;20448;-54
2023/07/08 08:20:37;;;;;;;9.40;6.07;;;30.40;36.80;;;;;;5073254;28;20432;-54
2023/07/08 08:23:03;;;;;;;6.27;5.47;;;30.70;37.10;;;;;;5073060;28;20464;-54
2023/07/08 08:25:30;;;;;;;7.30;6.07;;;30.90;36.90;;;;;;5072815;28;20448;-54
2023/07/08 08:27:58;;;;;;;6.23;5.30;;;31.20;36.60;;;;;;5072941;28;20444;-54
2023/07/08 08:30:25;;;;;;;6.93;5.90;;;31.50;35.40;;;;;;5073952;28;20957;-54
2023/07/08 08:32:51;;;;;;;6.80;6.20;;;31.80;35.60;;;;;;5073004;28;20479;-54
2023/07/08 08:35:18;;;;;;;7.37;6.63;;;32.10;34.50;;;;;;5072979;28;20541;-54
2023/07/08 08:37:45;;;;;;;7.63;5.90;;;32.20;33.50;;;;;;5073036;28;20453;-54
2023/07/08 08:40:15;;;;;;;7.63;6.83;;;32.20;34.00;;;;;;5072749;28;20938;-55
2023/07/08 08:42:46;;;;;;;6.30;5.70;;;32.30;33.10;;;;;;5072954;28;20464;-54
2023/07/08 08:45:20;;;;;;;7.90;7.17;;;32.30;33.80;;;;;;5075538;28;20786;-55
2023/07/08 08:47:50;;;;;;;9.50;7.00;;;32.50;34.20;;;;;;5076950;28;20459;-54
2023/07/08 08:50:31;;;;;;;7.20;6.50;;;32.70;33.00;;;;;;5076727;28;20526;-54
2023/07/08 08:53:00;;;;;;;7.93;7.13;;;32.90;33.40;;;;;;5077591;28;20893;-55
2023/07/08 08:55:27;;;;;;;10.53;6.97;;;33.00;32.80;;;;;;5077046;28;20455;-54
2023/07/08 08:58:03;;;;;;;7.30;6.43;;;33.20;31.60;;;;;;5076429;28;21028;-54
2023/07/08 09:00:37;;;;;;;6.90;6.30;;;33.40;31.50;;;;;;5076745;28;20431;-54
2023/07/08 09:03:10;;;;;;;9.47;7.20;;;33.70;32.70;;;;;;5076301;28;20981;-54
2023/07/08 09:05:36;;;;;;;8.00;7.30;;;33.90;30.40;;;;;;5076589;28;20428;-55
2023/07/08 09:08:13;;;;;;;8.10;6.50;;;34.10;30.90;;;;;;5076537;28;20456;-55
2023/07/08 09:10:46;;;;;;;7.90;7.10;;;34.50;30.60;;;;;;5076487;28;20446;-55
2023/07/08 09:13:20;;;;;;;7.53;6.83;;;34.80;30.40;;;;;;5076469;28;20471;-55
2023/07/08 09:15:49;;;;;;;7.80;7.00;;;35.00;28.60;;;;;;5076516;28;20436;-55
2023/07/08 09:18:21;;;;;;;8.13;7.00;;;35.20;27.80;;;;;;5075679;28;20938;-55
2023/07/08 09:20:48;;;;;;;8.90;7.13;;;35.20;27.80;;;;;;5076028;28;20902;-55
2023/07/08 09:23:21;;;;;;;7.27;6.67;;;35.20;28.20;;;;;;5076212;28;20474;-55
2023/07/08 09:25:54;;;;;;;8.00;7.27;;;35.30;28.30;;;;;;5076649;28;20432;-55
2023/07/08 09:28:21;;;;;;;8.23;7.53;;;35.30;28.40;;;;;;5076017;28;20511;-55
2023/07/08 09:30:54;;;;;;;8.40;7.60;;;35.40;28.30;;;;;;5076068;28;20454;-55
2023/07/08 09:33:21;;;;;;;7.70;7.00;;;35.70;29.20;;;;;;5076080;28;20226;-55
2023/07/08 09:35:49;;;;;;;8.20;7.30;;;36.00;29.70;;;;;;5076055;28;20448;-55
2023/07/08 09:38:18;;;;;;;8.07;7.20;;;36.30;28.60;;;;;;5076223;28;20444;-55
2023/07/08 09:40:49;;;;;;;8.63;7.40;;;36.60;26.50;;;;;;5076027;28;20444;-55
2023/07/08 09:43:25;;;;;;;7.60;6.60;;;36.50;26.20;;;;;;5075600;28;20738;-54
2023/07/08 09:45:58;;;;;;;7.13;6.53;;;36.40;26.10;;;;;;5075998;28;20590;-54
2023/07/08 09:48:27;;;;;;;7.30;6.47;;;36.50;26.80;;;;;;5075648;28;20447;-54
2023/07/08 09:50:55;;;;;;;8.57;6.90;;;36.60;27.50;;;;;;5091707;28;20254;-55
2023/07/08 09:53:22;;;;;;;7.20;6.60;;;36.90;27.00;;;;;;5095962;28;20342;-55
2023/07/08 09:55:51;;;;;;;11.00;6.73;;;37.30;27.10;;;;;;5095682;28;20201;-55
2023/07/08 09:58:24;;;;;;;7.10;6.50;;;37.60;26.20;;;;;;5095851;28;20205;-55
2023/07/08 10:00:55;;;;;;;7.50;6.80;;;38.00;26.00;;;;;;5095856;28;20197;-55
2023/07/08 10:03:23;;;;;;;10.45;7.63;;;38.30;25.80;;;;;;5095909;28;20228;-55
2023/07/08 10:05:52;;;;;;;7.43;6.82;;;38.70;26.00;;;;;;5095614;28;20268;-55
2023/07/08 10:08:22;;;;;;;6.57;6.00;;;39.10;26.10;;;;;;5095163;28;20678;-55
2023/07/08 10:10:53;;;;;;;7.72;6.88;;;39.40;26.10;;;;;;5095277;28;20612;-55
2023/07/08 10:13:24;;;;;;;7.82;6.75;;;39.80;24.80;;;;;;5095543;28;20231;-55
2023/07/08 10:15:57;;;;;;;7.13;6.53;;;40.10;23.30;;;;;;5096022;28;20194;-55
2023/07/08 10:18:28;;;;;;;6.82;6.18;;;40.10;22.20;;;;;;5095338;28;20216;-55
2023/07/08 10:21:03;;;;;;;7.60;6.63;;;40.20;22.00;;;;;;5095450;28;20189;-55
2023/07/08 10:23:42;;;;;;;7.60;6.90;;;40.40;22.90;;;;;;5096007;28;20228;-55
2023/07/08 10:26:15;;;;;;;8.95;6.07;;;40.60;20.70;;;;;;5095372;28;20635;-55
2023/07/08 10:28:47;;;;;;;6.47;5.95;;;40.50;21.40;;;;;;5096008;28;20209;-54
2023/07/08 10:31:27;;;;;;;7.03;6.18;;;40.50;22.00;;;;;;5095581;28;20189;-55
2023/07/08 10:34:11;;;;;;;6.97;6.38;;;40.70;22.50;;;;;;5095627;28;20221;-56
2023/07/08 10:36:50;;;;;;;7.03;5.80;;;40.80;20.70;;;;;;5095229;28;20655;-55
2023/07/08 10:39:38;;;;;;;13.25;5.70;;;40.80;21.00;;;;;;5095297;28;20193;-55
2023/07/08 10:42:16;;;;;;;8.85;6.50;;;41.00;20.80;;;;;;5095748;28;20192;-55
2023/07/08 10:44:53;;;;;;;7.10;6.40;;;41.40;21.40;;;;;;5095448;28;20192;-56
2023/07/08 10:47:36;;;;;;;6.60;6.00;;;41.90;21.90;;;;;;5095449;28;20208;-56
2023/07/08 10:50:21;;;;;;;9.07;6.13;;;42.70;21.30;;;;;;5095299;28;20636;-56
2023/07/08 10:52:56;;;;;;;6.03;5.53;;;43.60;20.40;;;;;;5095581;28;20240;-56
2023/07/08 10:55:33;;;;;;;7.82;6.00;;;44.40;20.10;;;;;;5094908;28;20181;-55
2023/07/08 10:58:37;;;;;;;14.52;6.80;;;45.30;20.00;;;;;;5095066;28;20271;-55
2023/07/08 11:01:11;;;;;;;8.05;5.40;;;46.00;18.20;;;;;;5095204;28;20181;-55
2023/07/08 11:04:11;;;;;;;5.85;5.25;;;46.50;16.00;;;;;;5094774;28;20278;-56
2023/07/08 11:06:46;;;;;;;7.65;6.07;;;46.80;16.20;;;;;;5073426;28;20213;-55
2023/07/08 11:09:18;;;;;;;6.45;5.78;;;47.30;16.00;;;;;;5094498;28;20616;-56
2023/07/08 11:11:51;;;;;;;7.03;4.82;;;47.80;16.70;;;;;;5094669;28;20189;-56
2023/07/08 11:14:23;;;;;;;7.53;5.80;;;48.30;16.50;;;;;;5094413;28;20557;-56
2023/07/08 11:16:57;;;;;;;9.73;6.10;;;48.60;14.10;;;;;;5094845;28;20192;-56
2023/07/08 11:19:30;;;;;;;10.68;5.97;;;48.80;15.00;;;;;;5094274;28;20204;-56
2023/07/08 11:22:01;;;;;;;8.07;5.82;;;49.10;14.90;;;;;;5094205;28;20212;-56
2023/07/08 11:24:35;;;;;;;6.10;5.28;;;49.40;14.10;;;;;;5094366;28;20205;-56
2023/07/08 11:27:06;;;;;;;5.63;5.13;;;49.80;14.80;;;;;;5094039;28;20189;-56
2023/07/08 11:29:38;;;;;;;5.80;5.18;;;50.10;14.00;;;;;;5093782;28;20666;-56
2023/07/08 11:32:06;;;;;;;5.10;4.60;;;50.50;14.40;;;;;;5094136;28;20198;-56
2023/07/08 11:34:36;;;;;;;5.53;5.03;;;50.90;14.40;;;;;;5093758;28;20566;-56
2023/07/08 11:37:03;;;;;;;6.47;4.75;;;51.40;14.10;;;;;;5094036;28;20567;-57
2023/07/08 11:39:34;;;;;;;5.85;5.18;;;51.60;14.10;;;;;;5093814;28;20607;-57
2023/07/08 11:42:12;;;;;;;7.38;5.13;;;52.00;13.40;;;;;;5093918;28;20190;-56
2023/07/08 11:44:44;;;;;;;6.47;5.60;;;52.20;12.20;;;;;;5093946;28;20185;-56
2023/07/08 11:47:17;;;;;;;5.75;4.80;;;52.60;13.00;;;;;;5094064;28;20284;-57
2023/07/08 11:49:48;;;;;;;5.10;4.70;;;52.70;12.00;;;;;;5094036;28;20244;-57
2023/07/08 11:52:19;;;;;;;5.00;4.28;;;52.80;11.50;;;;;;5093899;28;20282;-57
2023/07/08 11:54:47;;;;;;;5.47;5.07;;;52.90;11.60;;;;;;5094099;28;20185;-57
2023/07/08 11:57:19;;;;;;;5.88;4.90;;;52.90;11.90;;;;;;5094609;28;20201;-57
2023/07/08 11:59:47;;;;;;;6.43;5.07;;;52.80;11.10;;;;;;5093746;28;20181;-55
2023/07/08 12:02:16;;;;;;;4.43;4.10;;;52.60;11.10;;;;;;5093713;28;20303;-56
2023/07/08 12:04:59;;;;;;;5.25;4.75;;;52.70;12.10;;;;;;5093372;28;20674;-56
2023/07/08 12:07:32;;;;;;;7.25;5.57;;;52.90;12.30;;;;;;5093263;28;20643;-57
2023/07/08 12:10:04;;;;;;;8.77;5.05;;;53.00;12.40;;;;;;5093682;28;20220;-57
2023/07/08 12:12:33;;;;;;;5.00;4.60;;;53.30;12.20;;;;;;5093169;28;20722;-57
2023/07/08 12:15:10;;;;;;;6.80;4.47;;;53.60;12.10;;;;;;5093573;28;20201;-56
2023/07/08 12:17:38;;;;;;;5.30;4.80;;;53.90;12.40;;;;;;5093512;28;20189;-56
2023/07/08 12:20:18;;;;;;;4.95;4.55;;;54.20;12.00;;;;;;5093124;28;20211;-56
2023/07/08 12:22:45;;;;;;;5.40;4.85;;;54.50;11.70;;;;;;5093304;28;20227;-56
2023/07/08 12:25:16;;;;;;;5.70;5.30;;;54.70;11.80;;;;;;5078675;28;20675;-56
2023/07/08 12:27:43;;;;;;;5.18;4.78;;;54.90;11.60;;;;;;5073172;28;20220;-57
2023/07/08 12:30:11;;;;;;;4.32;3.95;;;55.10;11.20;;;;;;5073018;28;20226;-57
2023/07/08 12:32:38;;;;;;;5.22;4.28;;;55.30;11.10;;;;;;5072654;28;20741;-57
2023/07/08 12:35:17;;;;;;;5.30;4.70;;;55.60;10.90;;;;;;5072991;28;20609;-57
2023/07/08 12:37:43;;;;;;;5.03;4.53;;;55.70;10.60;;;;;;5072864;28;20640;-57
2023/07/08 12:40:11;;;;;;;5.85;3.90;;;55.90;10.70;;;;;;5072993;28;20209;-57
2023/07/08 12:42:38;;;;;;;5.85;4.43;;;56.10;10.90;;;;;;5072951;28;20222;-57
2023/07/08 12:45:14;;;;;;;5.20;4.00;;;56.20;9.40;;;;;;5073017;28;20205;-57
2023/07/08 12:47:41;;;;;;;4.50;4.10;;;56.20;10.10;;;;;;5073014;28;20193;-57
2023/07/08 12:50:11;;;;;;;5.80;4.65;;;56.20;9.90;;;;;;5072989;28;20257;-57
2023/07/08 12:52:38;;;;;;;4.45;4.15;;;56.30;10.10;;;;;;5074380;28;20226;-58
2023/07/08 12:55:05;;;;;;;4.43;4.13;;;56.40;10.20;;;;;;5074526;28;20208;-58